Time;durP1;ratioP1;P1;durP2;ratioP2;P2;SDS_P1;SDS_P2;PMS_P1;PMS_P2;Temp;Humidity;BMP_temperature;BMP_pressure;BME280_temperature;BME280_humidity;BME280_pressure;Samples;Min_cycle;Max_cycle;Signal;HPM_P1;HPM_P2
2021/09/10 00:02:54;;;;;;;8.37;5.70;;;;;;;22.61;56.85;97826.13;8417404;28;20206;-68
2021/09/10 00:06:57;;;;;;;11.07;5.43;;;;;;;22.58;56.24;97821.13;8418025;28;20239;-68
2021/09/10 00:11:00;;;;;;;9.10;5.47;;;;;;;22.46;56.44;97820.50;8418027;28;20498;-67
2021/09/10 00:15:03;;;;;;;8.77;5.63;;;;;;;22.43;56.75;97823.44;8417884;28;20199;-68
2021/09/10 00:19:08;;;;;;;9.13;5.60;;;;;;;22.38;55.99;97820.41;8422940;28;20365;-68
2021/09/10 00:23:14;;;;;;;7.27;5.87;;;;;;;22.34;56.22;97821.69;8451514;28;20202;-68
2021/09/10 00:27:17;;;;;;;7.73;5.33;;;;;;;22.30;56.70;97823.78;8451264;28;20229;-68
2021/09/10 00:31:20;;;;;;;12.27;6.57;;;;;;;22.16;57.36;97824.19;8451011;28;20220;-68
2021/09/10 00:35:24;;;;;;;10.07;6.83;;;;;;;22.13;57.26;97822.69;8450808;28;20529;-68
2021/09/10 00:39:27;;;;;;;10.83;6.30;;;;;;;22.15;57.18;97822.56;8450726;28;20208;-68
2021/09/10 00:43:30;;;;;;;8.53;6.57;;;;;;;22.12;57.21;97810.47;8450565;28;20209;-68
2021/09/10 00:47:35;;;;;;;10.03;6.60;;;;;;;22.07;57.37;97812.72;8450442;28;20226;-68
2021/09/10 00:51:40;;;;;;;7.90;5.83;;;;;;;22.11;57.50;97813.28;8450334;28;20198;-68
2021/09/10 00:55:44;;;;;;;12.07;6.70;;;;;;;22.01;58.33;97815.94;8450405;28;20222;-68
2021/09/10 00:59:47;;;;;;;13.40;8.13;;;;;;;21.67;60.00;97812.00;8450205;28;20206;-67
2021/09/10 01:03:50;;;;;;;11.33;8.17;;;;;;;21.66;60.02;97812.13;8423422;28;20393;-68
2021/09/10 01:07:54;;;;;;;11.37;7.50;;;;;;;21.82;59.43;97811.56;8416532;28;20544;-68
2021/09/10 01:11:58;;;;;;;9.87;7.67;;;;;;;21.88;59.03;97820.72;8416404;28;20391;-68
2021/09/10 01:16:01;;;;;;;9.10;6.80;;;;;;;21.83;59.32;97811.41;8416304;28;20198;-68
2021/09/10 01:20:07;;;;;;;10.07;7.23;;;;;;;21.90;58.81;97824.03;8416301;28;20212;-67
2021/09/10 01:24:11;;;;;;;10.70;7.17;;;;;;;21.83;58.58;97818.47;8416154;28;20232;-68
2021/09/10 01:28:16;;;;;;;11.77;7.20;;;;;;;21.85;58.71;97816.53;8416044;28;20227;-68
2021/09/10 01:32:19;;;;;;;7.47;6.50;;;;;;;21.83;58.45;97816.66;8416026;28;20207;-68
2021/09/10 01:36:22;;;;;;;12.73;7.50;;;;;;;21.80;58.11;97821.38;8416024;28;20202;-67
2021/09/10 01:40:25;;;;;;;10.27;7.60;;;;;;;21.74;58.49;97821.97;8415714;28;20516;-67
2021/09/10 01:44:29;;;;;;;10.10;7.40;;;;;;;21.74;58.77;97824.59;8415901;28;20211;-68
2021/09/10 01:48:32;;;;;;;11.50;7.40;;;;;;;21.71;58.93;97827.53;8415616;28;20303;-68
2021/09/10 01:52:35;;;;;;;11.93;7.10;;;;;;;21.65;58.35;97821.03;8415753;28;20517;-67
2021/09/10 01:56:40;;;;;;;10.33;6.80;;;;;;;21.62;58.63;97818.66;8415944;28;20517;-68
2021/09/10 02:00:45;;;;;;;8.63;6.53;;;;;;;21.60;58.33;97817.97;8415665;28;20213;-68
2021/09/10 02:04:48;;;;;;;10.03;7.40;;;;;;;21.51;58.67;97817.00;8415497;28;20599;-68
2021/09/10 02:08:51;;;;;;;11.17;7.13;;;;;;;21.52;58.59;97821.31;8415823;28;20223;-68
2021/09/10 02:12:53;;;;;;;10.40;6.87;;;;;;;21.47;58.48;97824.34;8421894;28;20199;-68
2021/09/10 02:17:00;;;;;;;8.77;6.40;;;;;;;21.48;58.50;97823.41;8422129;28;20212;-68
2021/09/10 02:21:03;;;;;;;9.20;7.03;;;;;;;21.45;58.03;97818.41;8421972;28;20203;-68
2021/09/10 02:25:08;;;;;;;11.40;7.30;;;;;;;21.36;58.37;97815.75;8421715;28;20212;-68
2021/09/10 02:29:11;;;;;;;10.43;7.60;;;;;;;21.32;58.44;97822.28;8420684;28;20234;-68
2021/09/10 02:33:15;;;;;;;9.20;7.93;;;;;;;21.36;58.80;97821.00;8421018;28;20226;-67
2021/09/10 02:37:18;;;;;;;11.37;8.53;;;;;;;21.32;58.76;97812.56;8420968;28;20214;-68
2021/09/10 02:41:21;;;;;;;10.33;8.10;;;;;;;21.23;58.88;97816.06;8421236;28;20313;-68
2021/09/10 02:45:24;;;;;;;10.10;8.57;;;;;;;21.11;58.95;97820.59;8420861;28;20218;-68
2021/09/10 02:49:28;;;;;;;11.90;8.53;;;;;;;21.20;58.47;97813.69;8420517;28;20237;-68
2021/09/10 02:53:31;;;;;;;10.60;8.70;;;;;;;21.17;58.29;97809.53;8420610;28;20248;-68
2021/09/10 02:57:35;;;;;;;13.80;8.23;;;;;;;21.17;58.70;97816.59;8420570;28;20223;-68
2021/09/10 03:01:43;;;;;;;10.40;8.10;;;;;;;21.15;58.35;97815.88;8420147;28;20199;-68
2021/09/10 03:05:48;;;;;;;9.87;8.33;;;;;;;21.02;58.65;97816.19;8420345;28;20227;-68
2021/09/10 03:09:51;;;;;;;10.53;8.90;;;;;;;20.98;59.14;97818.25;8420107;28;20246;-68
2021/09/10 03:13:54;;;;;;;12.37;8.93;;;;;;;20.91;59.22;97817.13;8420066;28;20212;-68
2021/09/10 03:17:56;;;;;;;11.50;8.47;;;;;;;20.96;59.24;97820.19;8419891;28;20200;-68
2021/09/10 03:22:01;;;;;;;10.93;8.83;;;;;;;20.93;59.02;97814.38;8418705;28;20199;-68
2021/09/10 03:26:04;;;;;;;11.60;8.63;;;;;;;20.98;58.75;97806.88;8419672;28;20203;-68
2021/09/10 03:30:08;;;;;;;10.33;8.43;;;;;;;21.01;58.61;97807.44;8419247;28;20300;-68
2021/09/10 03:34:11;;;;;;;10.30;8.50;;;;;;;20.98;59.03;97809.50;8419322;28;20396;-68
2021/09/10 03:38:15;;;;;;;9.90;8.90;;;;;;;20.98;59.04;97807.72;8419292;28;20521;-68
2021/09/10 03:42:18;;;;;;;10.67;9.23;;;;;;;21.01;58.84;97806.59;8419126;28;20223;-68
2021/09/10 03:46:22;;;;;;;10.40;9.37;;;;;;;20.84;59.19;97805.47;8418849;28;20199;-70
2021/09/10 03:50:25;;;;;;;12.33;9.53;;;;;;;20.80;59.57;97798.84;8418687;28;20228;-68
2021/09/10 03:54:29;;;;;;;10.47;9.37;;;;;;;20.65;60.21;97798.38;8418607;28;20199;-68
2021/09/10 03:58:35;;;;;;;12.33;10.07;;;;;;;20.77;59.69;97797.31;8418552;28;20203;-67
2021/09/10 04:02:38;;;;;;;14.67;9.73;;;;;;;20.65;59.90;97801.84;8418240;28;20207;-68
2021/09/10 04:06:41;;;;;;;14.07;10.07;;;;;;;20.41;60.87;97809.22;8418182;28;20226;-68
2021/09/10 04:10:45;;;;;;;10.40;9.37;;;;;;;20.19;61.40;97805.84;8417968;28;20262;-68
2021/09/10 04:14:48;;;;;;;12.53;9.97;;;;;;;20.42;60.94;97808.28;8418071;28;20605;-68
2021/09/10 04:18:51;;;;;;;12.43;10.53;;;;;;;20.35;61.64;97810.59;8417725;28;20266;-68
2021/09/10 04:22:54;;;;;;;13.43;10.47;;;;;;;20.40;60.78;97815.47;8417707;28;20199;-68
2021/09/10 04:26:58;;;;;;;13.17;10.63;;;;;;;20.48;60.79;97807.72;8417471;28;20209;-68
2021/09/10 04:31:04;;;;;;;13.23;10.80;;;;;;;20.45;60.98;97810.66;8417484;28;20549;-68
2021/09/10 04:35:11;;;;;;;17.23;11.50;;;;;;;20.38;61.67;97814.75;8416845;28;20535;-68
2021/09/10 04:39:13;;;;;;;14.93;11.07;;;;;;;20.39;61.63;97814.63;8417271;28;20214;-68
2021/09/10 04:43:20;;;;;;;14.83;12.47;;;;;;;19.71;64.13;97809.84;8417082;28;20285;-68
2021/09/10 04:47:25;;;;;;;13.73;12.00;;;;;;;20.11;62.86;97817.00;8417051;28;20211;-68
2021/09/10 04:51:29;;;;;;;14.47;11.20;;;;;;;20.13;62.69;97819.50;8414974;28;20231;-68
2021/09/10 04:55:32;;;;;;;14.53;11.23;;;;;;;20.21;62.40;97824.09;8416817;28;20280;-68
2021/09/10 04:59:36;;;;;;;12.50;11.20;;;;;;;20.36;61.64;97825.41;8416552;28;20210;-68
2021/09/10 05:03:39;;;;;;;14.97;11.93;;;;;;;19.96;63.33;97822.75;8416812;28;20206;-68
2021/09/10 05:07:42;;;;;;;15.53;12.43;;;;;;;20.05;62.84;97817.53;8403764;28;20241;-68
2021/09/10 05:11:45;;;;;;;13.33;12.07;;;;;;;20.15;62.45;97820.22;8398747;28;20223;-67
2021/09/10 05:15:49;;;;;;;16.17;12.47;;;;;;;19.86;63.33;97828.78;8398840;28;20210;-68
2021/09/10 05:19:52;;;;;;;13.43;11.97;;;;;;;20.22;61.83;97825.75;8403415;28;20478;-68
2021/09/10 05:23:55;;;;;;;14.23;12.73;;;;;;;20.18;62.05;97835.72;8416380;28;20199;-68
2021/09/10 05:28:00;;;;;;;13.27;11.87;;;;;;;20.47;60.84;97835.00;8410836;28;20262;-68
2021/09/10 05:32:05;;;;;;;15.87;12.20;;;;;;;20.62;60.24;97833.69;8390595;28;20227;-69
2021/09/10 05:36:08;;;;;;;15.90;12.80;;;;;;;20.09;62.43;97836.50;8381931;28;20253;-70
2021/09/10 05:40:13;;;;;;;17.73;11.97;;;;;;;20.15;62.36;97850.94;8382497;28;20204;-69
2021/09/10 05:44:16;;;;;;;17.93;12.30;;;;;;;20.11;62.13;97850.34;8383988;28;20370;-69
2021/09/10 05:48:20;;;;;;;17.33;12.47;;;;;;;19.84;63.10;97850.91;8421767;28;20194;-69
2021/09/10 05:52:23;;;;;;;15.33;11.50;;;;;;;20.26;61.59;97849.03;8456139;28;20380;-69
2021/09/10 05:56:26;;;;;;;16.53;12.10;;;;;;;20.66;60.48;97852.69;8456062;28;20204;-70
2021/09/10 06:00:28;;;;;;;16.07;11.87;;;;;;;20.86;59.20;97857.00;8455838;28;20202;-69
2021/09/10 06:04:33;;;;;;;14.93;11.77;;;;;;;20.91;59.38;97853.16;8423295;28;20206;-70
2021/09/10 06:08:36;;;;;;;15.20;11.83;;;;;;;21.26;58.33;97853.44;8422334;28;20206;-69
2021/09/10 06:12:39;;;;;;;14.37;11.73;;;;;;;21.48;57.41;97851.56;8421801;28;20231;-70
2021/09/10 06:16:41;;;;;;;13.50;10.87;;;;;;;21.69;57.56;97846.13;8421664;28;20207;-69
2021/09/10 06:20:46;;;;;;;13.53;11.27;;;;;;;21.77;56.74;97851.50;8421753;28;20382;-69
2021/09/10 06:24:48;;;;;;;15.87;10.87;;;;;;;21.90;56.61;97859.13;8421594;28;20200;-69
2021/09/10 06:28:51;;;;;;;17.97;12.57;;;;;;;21.96;55.81;97863.81;8421665;28;20203;-69
2021/09/10 06:32:54;;;;;;;14.20;12.00;;;;;;;21.96;55.95;97869.09;8420945;28;20254;-69
2021/09/10 06:36:58;;;;;;;12.73;11.43;;;;;;;22.04;55.91;97873.66;8421380;28;20372;-69
2021/09/10 06:41:01;;;;;;;19.60;11.40;;;;;;;22.24;55.00;97867.34;8421034;28;20215;-69
2021/09/10 06:45:05;;;;;;;13.67;11.03;;;;;;;22.37;54.90;97874.97;8420900;28;20199;-69
2021/09/10 06:49:08;;;;;;;14.20;11.53;;;;;;;22.43;54.25;97871.75;8420866;28;20203;-69
2021/09/10 06:53:12;;;;;;;13.33;10.77;;;;;;;22.64;54.03;97868.88;8420930;28;20225;-69
2021/09/10 06:57:15;;;;;;;13.80;10.93;;;;;;;22.70;53.57;97877.19;8420237;28;20496;-69
2021/09/10 07:01:19;;;;;;;17.23;11.50;;;;;;;22.77;53.71;97873.81;8420422;28;20206;-69
2021/09/10 07:05:22;;;;;;;18.77;11.30;;;;;;;22.82;53.07;97873.38;8420211;28;20231;-69
2021/09/10 07:09:27;;;;;;;12.07;10.87;;;;;;;22.87;53.90;97880.88;8420052;28;20272;-69
2021/09/10 07:13:29;;;;;;;13.33;10.57;;;;;;;23.25;53.25;97873.66;8419876;28;20208;-69
2021/09/10 07:17:33;;;;;;;13.00;10.37;;;;;;;23.41;52.39;97871.19;8419958;28;20214;-69
2021/09/10 07:21:36;;;;;;;14.57;10.67;;;;;;;22.99;52.64;97877.03;8419947;28;20531;-69
2021/09/10 07:25:40;;;;;;;14.40;10.10;;;;;;;23.45;52.50;97879.66;8419891;28;20202;-69
2021/09/10 07:29:43;;;;;;;14.33;9.77;;;;;;;23.70;52.21;97886.78;8419424;28;20233;-69
2021/09/10 07:33:46;;;;;;;14.57;10.10;;;;;;;23.82;51.09;97887.44;8419400;28;20226;-69
2021/09/10 07:37:49;;;;;;;12.40;10.17;;;;;;;24.10;50.81;97890.75;8419350;28;20332;-69
2021/09/10 07:41:53;;;;;;;13.10;9.40;;;;;;;24.37;50.35;97886.31;8408833;28;20202;-70
2021/09/10 07:45:56;;;;;;;14.00;9.47;;;;;;;24.64;48.96;97885.28;8401371;28;20505;-69
2021/09/10 07:49:59;;;;;;;12.33;9.27;;;;;;;24.82;48.33;97887.00;8401527;28;20230;-70
2021/09/10 07:54:02;;;;;;;12.70;7.53;;;;;;;25.10;47.13;97885.75;8400752;28;20205;-69
2021/09/10 07:58:06;;;;;;;12.70;8.57;;;;;;;25.40;46.42;97888.84;8403191;28;20192;-70
2021/09/10 08:02:09;;;;;;;12.53;7.50;;;;;;;25.48;45.42;97891.50;8417587;28;20371;-66
2021/09/10 08:06:12;;;;;;;11.80;8.43;;;;;;;25.59;45.39;97894.78;8417819;28;20237;-66
2021/09/10 08:10:16;;;;;;;12.27;8.10;;;;;;;25.92;45.23;97895.66;8417779;28;20226;-66
2021/09/10 08:14:20;;;;;;;11.97;7.87;;;;;;;26.27;45.06;97896.25;8417519;28;20207;-67
2021/09/10 08:18:23;;;;;;;10.23;7.70;;;;;;;26.62;43.86;97905.66;8417858;28;20194;-65
2021/09/10 08:22:30;;;;;;;14.23;7.20;;;;;;;26.71;42.99;97914.41;8417809;28;20205;-66
2021/09/10 08:26:33;;;;;;;10.97;7.50;;;;;;;26.95;42.63;97920.63;8417824;28;20200;-66
2021/09/10 08:30:37;;;;;;;11.77;7.07;;;;;;;27.36;41.75;97921.28;8404241;28;20221;-66
2021/09/10 08:34:40;;;;;;;7.50;6.70;;;;;;;27.61;40.39;97921.09;8386878;28;20538;-65
2021/09/10 08:38:42;;;;;;;10.07;6.53;;;;;;;27.87;39.73;97923.38;8395053;28;20374;-65
2021/09/10 08:42:46;;;;;;;7.37;6.53;;;;;;;28.00;39.03;97925.47;8398159;28;20195;-65
2021/09/10 08:46:51;;;;;;;8.93;7.17;;;;;;;27.93;39.29;97929.84;8399574;28;20189;-66
2021/09/10 08:50:54;;;;;;;8.30;6.60;;;;;;;28.43;38.24;97931.06;8407547;28;20426;-67
2021/09/10 08:55:00;;;;;;;10.53;6.33;;;;;;;28.56;38.69;97931.28;8416844;28;20210;-66
2021/09/10 08:59:09;;;;;;;12.97;7.10;;;;;;;29.01;37.73;97939.22;8410789;28;20194;-66
2021/09/10 09:03:13;;;;;;;11.30;6.30;;;;;;;29.17;38.42;97936.38;8401207;28;20210;-65
2021/09/10 09:07:17;;;;;;;10.93;6.60;;;;;;;29.47;36.43;97940.78;8399059;28;20550;-66
2021/09/10 09:11:37;;;;;;;7.80;6.30;;;;;;;29.37;36.18;97927.75;8398928;28;20248;-68
2021/09/10 09:16:19;;;;;;;6.43;5.77;;;;;;;29.37;34.96;97925.09;8402332;28;20519;-66
2021/09/10 09:20:47;;;;;;;8.33;5.07;;;;;;;29.56;34.96;97929.81;8382923;28;20238;-66
2021/09/10 09:25:10;;;;;;;6.83;5.23;;;;;;;29.83;34.75;97930.06;8382601;28;20210;-66
2021/09/10 09:29:30;;;;;;;7.43;5.50;;;;;;;30.09;35.46;97928.66;8382859;28;20295;-66
2021/09/10 09:33:51;;;;;;;8.30;5.30;;;;;;;30.19;34.58;97919.28;8382445;28;20238;-66
2021/09/10 09:38:18;;;;;;;5.00;4.50;;;;;;;30.32;32.37;97915.91;8382639;28;20218;-66
2021/09/10 09:42:38;;;;;;;5.53;5.00;;;;;;;29.91;32.87;97924.63;8382436;28;20199;-67
2021/09/10 09:47:00;;;;;;;8.57;5.47;;;;;;;30.20;32.47;97910.25;8382256;28;20296;-67
2021/09/10 09:51:16;;;;;;;5.27;4.77;;;;;;;30.28;32.92;97916.47;8382605;28;20234;-67
2021/09/10 09:55:22;;;;;;;6.93;5.30;;;;;;;30.41;33.20;97913.91;8382667;28;20209;-68
2021/09/10 09:59:26;;;;;;;4.87;4.43;;;;;;;30.48;32.74;97920.13;8382537;28;20210;-67
2021/09/10 10:03:29;;;;;;;5.63;4.80;;;;;;;30.65;32.33;97917.13;8405415;28;20205;-67
2021/09/10 10:07:37;;;;;;;6.43;4.90;;;;;;;30.57;32.23;97915.44;8415573;28;20238;-66
2021/09/10 10:11:44;;;;;;;10.37;5.07;;;;;;;30.59;32.51;97906.19;8415089;28;20234;-66
2021/09/10 10:15:49;;;;;;;5.47;4.77;;;;;;;30.76;33.71;97905.88;8388463;28;20198;-65
2021/09/10 10:19:52;;;;;;;5.60;4.73;;;;;;;30.89;32.84;97902.44;8401680;28;20256;-65
2021/09/10 10:23:57;;;;;;;8.37;5.43;;;;;;;30.86;32.67;97898.28;8410591;28;20199;-65
2021/09/10 10:28:02;;;;;;;9.70;5.43;;;;;;;30.96;32.47;97903.31;8415399;28;20207;-69
2021/09/10 10:32:07;;;;;;;8.00;5.20;;;;;;;31.04;32.17;97900.47;8419058;28;20228;-68
2021/09/10 10:36:31;;;;;;;8.10;5.33;;;;;;;31.12;32.05;97889.59;8421249;28;20227;-69
2021/09/10 10:40:38;;;;;;;6.23;4.90;;;;;;;31.06;31.89;97881.56;8421438;28;20198;-69
2021/09/10 10:45:00;;;;;;;6.23;4.87;;;;;;;31.08;32.16;97888.34;8421065;28;20387;-65
2021/09/10 10:49:06;;;;;;;6.60;5.20;;;;;;;31.06;31.96;97884.22;8420202;28;20207;-66
2021/09/10 10:53:09;;;;;;;5.27;4.77;;;;;;;30.93;31.77;97883.16;8418916;28;20553;-65
2021/09/10 10:57:27;;;;;;;6.37;4.67;;;;;;;30.98;31.42;97880.69;8419533;28;20224;-66
2021/09/10 11:01:31;;;;;;;8.57;5.27;;;;;;;31.14;31.16;97878.69;8422592;28;20482;-65
2021/09/10 11:05:34;;;;;;;9.80;5.27;;;;;;;30.85;32.03;97877.13;8420221;28;20231;-65
2021/09/10 11:09:37;;;;;;;6.70;5.27;;;;;;;30.99;31.85;97876.16;8420271;28;20206;-61
2021/09/10 11:13:45;;;;;;;7.40;4.93;;;;;;;31.15;31.24;97867.78;8418955;28;20423;-63
2021/09/10 11:18:00;;;;;;;8.00;5.20;;;;;;;31.34;31.37;97871.53;8417242;28;20197;-62
2021/09/10 11:22:03;;;;;;;8.23;4.53;;;;;;;31.01;31.97;97863.44;8419039;28;20209;-62
2021/09/10 11:26:09;;;;;;;7.27;5.00;;;;;;;31.05;30.84;97878.03;8410212;28;20383;-62
2021/09/10 11:30:13;;;;;;;5.90;5.00;;;;;;;31.15;31.38;97866.97;8429351;28;20204;-61
2021/09/10 11:34:33;;;;;;;8.30;5.07;;;;;;;31.34;31.56;97865.38;8414119;28;20227;-62
2021/09/10 11:38:37;;;;;;;6.40;5.23;;;;;;;31.19;31.18;97862.88;8400067;28;20227;-62
2021/09/10 11:43:05;;;;;;;5.67;5.07;;;;;;;31.15;31.48;97861.63;8406319;28;20496;-62
2021/09/10 11:47:07;;;;;;;8.80;5.17;;;;;;;30.96;30.91;97863.22;8401254;28;20221;-62
2021/09/10 11:51:13;;;;;;;7.33;5.13;;;;;;;30.85;32.20;97855.75;8401353;28;20215;-61
2021/09/10 11:55:20;;;;;;;6.67;4.90;;;;;;;31.32;31.80;97852.19;8401710;28;20196;-62
2021/09/10 11:59:25;;;;;;;6.57;4.30;;;;;;;30.68;31.58;97848.06;8403210;28;20200;-62
2021/09/10 12:03:28;;;;;;;7.43;5.27;;;;;;;30.51;32.62;97847.59;8404160;28;20266;-62
2021/09/10 12:07:33;;;;;;;6.97;4.63;;;;;;;29.78;33.42;97847.94;8401023;28;20231;-61
2021/09/10 12:11:36;;;;;;;8.07;4.90;;;;;;;30.71;32.55;97838.81;8400771;28;20223;-62
2021/09/10 12:15:41;;;;;;;7.27;4.60;;;;;;;31.08;32.28;97837.53;8405773;28;20517;-62
2021/09/10 12:19:56;;;;;;;5.37;4.80;;;;;;;31.25;32.08;97827.28;8401209;28;20288;-62
2021/09/10 12:24:10;;;;;;;5.63;4.50;;;;;;;31.34;30.85;97826.06;8409344;28;20203;-62
2021/09/10 12:28:26;;;;;;;6.63;4.93;;;;;;;31.42;31.23;97813.53;8409718;28;20379;-67
2021/09/10 12:32:29;;;;;;;6.93;4.60;;;;;;;31.38;31.02;97805.06;8384274;28;20236;-67
2021/09/10 12:36:32;;;;;;;9.70;4.97;;;;;;;31.49;31.15;97804.50;8384361;28;20202;-67
2021/09/10 12:40:38;;;;;;;6.90;4.73;;;;;;;31.23;31.02;97799.91;8384519;28;20226;-66
2021/09/10 12:44:41;;;;;;;6.50;4.70;;;;;;;31.15;30.97;97794.78;8404831;28;20200;-67
2021/09/10 12:48:44;;;;;;;6.80;4.83;;;;;;;31.25;30.87;97791.69;8417338;28;20207;-67
2021/09/10 12:52:47;;;;;;;7.37;4.83;;;;;;;31.24;30.63;97798.88;8404703;28;20412;-66
2021/09/10 12:56:51;;;;;;;55.87;6.93;;;;;;;31.44;30.53;97795.41;8401924;28;20217;-68
2021/09/10 13:00:54;;;;;;;7.60;4.57;;;;;;;31.49;30.13;97792.94;8410920;28;20198;-66
2021/09/10 13:04:58;;;;;;;6.20;4.70;;;;;;;30.45;31.73;97794.13;8416511;28;20236;-65
2021/09/10 13:09:01;;;;;;;9.33;5.50;;;;;;;31.17;31.04;97790.03;8416474;28;20206;-66
2021/09/10 13:13:05;;;;;;;6.10;5.07;;;;;;;31.02;31.17;97792.91;8416768;28;20231;-66
2021/09/10 13:17:08;;;;;;;5.57;4.63;;;;;;;30.99;31.39;97787.94;8416727;28;20199;-66
2021/09/10 13:21:11;;;;;;;7.07;4.77;;;;;;;31.30;30.83;97781.19;8416463;28;20207;-66
2021/09/10 13:25:14;;;;;;;6.93;5.10;;;;;;;30.33;32.90;97789.38;8416328;28;20210;-66
2021/09/10 13:29:18;;;;;;;7.33;4.93;;;;;;;29.97;33.29;97789.56;8416019;28;20206;-65
2021/09/10 13:33:23;;;;;;;7.70;5.10;;;;;;;29.54;34.96;97784.28;8408825;28;20236;-66
2021/09/10 13:37:26;;;;;;;8.43;5.00;;;;;;;29.60;34.63;97771.00;8398532;28;20507;-66
2021/09/10 13:41:29;;;;;;;8.03;5.40;;;;;;;29.72;34.88;97770.44;8398548;28;20190;-66
2021/09/10 13:45:33;;;;;;;5.73;5.23;;;;;;;29.34;34.47;97776.13;8398504;28;20193;-66
2021/09/10 13:49:36;;;;;;;5.90;5.00;;;;;;;29.76;34.06;97764.59;8382611;28;20209;-64
2021/09/10 13:53:39;;;;;;;7.33;4.67;;;;;;;29.59;33.97;97757.88;8408567;28;20273;-66
2021/09/10 13:57:42;;;;;;;6.93;5.30;;;;;;;29.94;33.52;97758.72;8415766;28;20210;-66
2021/09/10 14:01:46;;;;;;;20.00;6.40;;;;;;;30.21;33.37;97759.72;8415962;28;20201;-66
2021/09/10 14:05:49;;;;;;;9.57;5.37;;;;;;;29.58;33.48;97753.53;8411309;28;20243;-67
2021/09/10 14:09:52;;;;;;;8.90;5.23;;;;;;;29.65;33.30;97757.09;8393307;28;20207;-65
2021/09/10 14:13:55;;;;;;;7.60;5.13;;;;;;;29.15;33.89;97764.25;8386730;28;20384;-65
2021/09/10 14:17:59;;;;;;;5.50;4.90;;;;;;;29.01;34.96;97765.97;8386554;28;20229;-66
2021/09/10 14:22:02;;;;;;;6.73;5.10;;;;;;;28.84;35.66;97763.56;8386534;28;20265;-66
2021/09/10 14:26:05;;;;;;;6.00;4.80;;;;;;;28.86;35.84;97758.00;8411352;28;20197;-66
2021/09/10 14:30:09;;;;;;;8.83;5.43;;;;;;;28.79;36.38;97765.16;8419582;28;20217;-67
2021/09/10 14:34:13;;;;;;;8.97;4.80;;;;;;;28.71;37.28;97760.75;8430727;28;20403;-69
2021/09/10 14:38:16;;;;;;;35.20;6.70;;;;;;;28.71;36.88;97767.91;8451543;28;20515;-69
2021/09/10 14:42:19;;;;;;;12.30;5.37;;;;;;;28.47;36.83;97760.03;8419450;28;20206;-70
2021/09/10 14:46:22;;;;;;;6.30;4.93;;;;;;;28.54;36.85;97765.50;8419202;28;20212;-71
2021/09/10 14:50:28;;;;;;;8.47;4.80;;;;;;;29.03;35.67;97758.59;8450481;28;20224;-70
2021/09/10 14:54:31;;;;;;;6.00;4.80;;;;;;;29.55;34.82;97759.25;8452208;28;20232;-70
2021/09/10 14:58:34;;;;;;;5.30;4.40;;;;;;;29.75;34.26;97762.91;8429987;28;20191;-69
2021/09/10 15:02:38;;;;;;;5.07;4.57;;;;;;;29.81;35.14;97758.66;8416998;28;20203;-69
2021/09/10 15:06:43;;;;;;;5.00;4.50;;;;;;;29.72;34.99;97757.13;8403866;28;1137896;-69
2021/09/10 15:10:46;;;;;;;4.10;3.70;;;;;;;29.74;34.58;97755.09;8453741;28;20208;-70
2021/09/10 15:14:49;;;;;;;6.57;3.80;;;;;;;29.70;35.17;97756.50;8453731;28;20436;-70
2021/09/10 15:18:52;;;;;;;5.87;4.43;;;;;;;29.75;35.04;97757.59;8453280;28;20203;-69
2021/09/10 15:22:56;;;;;;;4.67;4.27;;;;;;;29.65;34.61;97753.59;8453363;28;20314;-69
2021/09/10 15:27:00;;;;;;;6.97;4.43;;;;;;;29.46;34.37;97755.09;8441408;28;20199;-70
2021/09/10 15:31:02;;;;;;;5.67;4.20;;;;;;;29.30;34.90;97762.38;8419716;28;20509;-69
2021/09/10 15:35:06;;;;;;;7.00;4.20;;;;;;;29.17;34.67;97760.41;8419484;28;20235;-69
2021/09/10 15:39:11;;;;;;;5.17;4.00;;;;;;;29.14;34.79;97763.44;8430077;28;20473;-69
2021/09/10 15:43:18;;;;;;;5.27;4.37;;;;;;;29.03;35.10;97756.78;8452858;28;20212;-69
2021/09/10 15:47:20;;;;;;;5.47;4.30;;;;;;;29.12;35.84;97756.63;8452624;28;20213;-70
2021/09/10 15:51:23;;;;;;;6.77;4.33;;;;;;;29.01;35.57;97752.63;8452513;28;20200;-70
2021/09/10 15:55:28;;;;;;;7.57;4.00;;;;;;;28.81;35.56;97758.59;8452361;28;20233;-62
2021/09/10 15:59:31;;;;;;;6.20;4.30;;;;;;;28.56;36.27;97757.28;8452270;28;20519;-62
2021/09/10 16:03:34;;;;;;;5.47;4.40;;;;;;;28.34;36.59;97764.38;8452104;28;20212;-62
2021/09/10 16:07:37;;;;;;;4.57;4.17;;;;;;;28.41;37.24;97767.97;8451703;28;20574;-62
2021/09/10 16:11:42;;;;;;;5.60;4.30;;;;;;;28.19;37.45;97767.88;8451906;28;20206;-62
2021/09/10 16:15:44;;;;;;;6.53;4.30;;;;;;;27.97;37.34;97763.47;8451751;28;20263;-62
2021/09/10 16:19:47;;;;;;;6.47;4.70;;;;;;;27.93;37.55;97775.50;8451623;28;20200;-62
2021/09/10 16:23:50;;;;;;;4.80;4.17;;;;;;;27.78;37.87;97770.13;8451441;28;20209;-62
2021/09/10 16:27:54;;;;;;;5.10;4.47;;;;;;;27.76;38.45;97775.66;8431460;28;20387;-62
2021/09/10 16:31:57;;;;;;;7.07;4.60;;;;;;;27.59;38.38;97780.31;8417545;28;20201;-62
2021/09/10 16:36:00;;;;;;;6.53;4.57;;;;;;;27.43;38.10;97793.75;8417121;28;20257;-69
2021/09/10 16:40:04;;;;;;;11.90;5.27;;;;;;;27.34;38.71;97792.16;8420854;28;20199;-76
2021/09/10 16:44:08;;;;;;;7.87;4.90;;;;;;;27.23;38.87;97798.72;8428737;28;20201;-69
2021/09/10 16:48:11;;;;;;;19.07;5.53;;;;;;;27.13;39.50;97811.41;8399538;28;20202;-69
2021/09/10 16:52:34;;;;;;;7.87;4.67;;;;;;;26.78;40.81;97809.13;8399563;28;20227;-70
2021/09/10 16:56:36;;;;;;;11.20;4.80;;;;;;;26.66;41.11;97800.75;8397597;28;20249;-69
2021/09/10 17:00:41;;;;;;;6.97;5.00;;;;;;;26.64;40.93;97793.97;8394174;28;20489;-69
2021/09/10 17:04:44;;;;;;;6.33;4.87;;;;;;;26.67;40.98;97797.09;8386193;28;20240;-69
2021/09/10 17:08:47;;;;;;;10.83;4.80;;;;;;;26.64;41.46;97804.56;8410899;28;20203;-69
2021/09/10 17:12:50;;;;;;;7.37;5.57;;;;;;;26.52;41.28;97804.09;8397587;28;20211;-69
2021/09/10 17:16:54;;;;;;;8.70;5.80;;;;;;;26.42;41.58;97800.81;8416495;28;20522;-70
2021/09/10 17:20:57;;;;;;;10.53;6.63;;;;;;;26.38;41.71;97807.47;8404026;28;20197;-69
2021/09/10 17:25:00;;;;;;;8.80;6.90;;;;;;;26.30;42.10;97808.34;8390048;28;20200;-67
2021/09/10 17:29:03;;;;;;;10.27;5.97;;;;;;;26.24;41.97;97809.84;8411358;28;20199;-67
2021/09/10 17:33:07;;;;;;;7.20;5.90;;;;;;;26.23;42.50;97810.03;8415938;28;20236;-67
2021/09/10 17:37:12;;;;;;;8.90;6.17;;;;;;;26.10;43.39;97822.00;8415812;28;20208;-68
2021/09/10 17:41:15;;;;;;;9.20;5.43;;;;;;;26.06;43.88;97820.69;8443366;28;20203;-67
2021/09/10 17:45:18;;;;;;;8.53;5.20;;;;;;;25.96;44.07;97832.50;8449504;28;20212;-67
2021/09/10 17:49:23;;;;;;;5.20;4.70;;;;;;;25.90;44.36;97840.09;8449341;28;20489;-67
2021/09/10 17:53:25;;;;;;;7.07;4.93;;;;;;;25.87;44.40;97844.91;8449074;28;20238;-67
2021/09/10 17:57:28;;;;;;;7.73;5.33;;;;;;;25.77;44.71;97839.78;8449187;28;20199;-67
2021/09/10 18:01:31;;;;;;;17.93;5.47;;;;;;;25.73;45.29;97851.72;8430575;28;20199;-67
2021/09/10 18:05:37;;;;;;;7.40;5.70;;;;;;;25.70;45.58;97858.19;8398449;28;20229;-67
2021/09/10 18:09:40;;;;;;;14.60;5.20;;;;;;;25.67;45.45;97858.50;8409670;28;20203;-67
2021/09/10 18:13:45;;;;;;;9.73;4.90;;;;;;;25.66;45.73;97878.06;8415122;28;20239;-66
2021/09/10 18:17:48;;;;;;;10.13;4.80;;;;;;;25.59;46.01;97884.19;8406397;28;20203;-68
2021/09/10 18:21:52;;;;;;;8.10;5.30;;;;;;;25.55;46.08;97881.88;8397309;28;20207;-69
2021/09/10 18:25:55;;;;;;;7.73;5.40;;;;;;;25.46;46.23;97892.66;8399117;28;20213;-69
2021/09/10 18:29:58;;;;;;;7.97;5.07;;;;;;;25.35;46.63;97901.75;8415227;28;20199;-68
2021/09/10 18:34:00;;;;;;;11.10;5.10;;;;;;;25.29;47.25;97899.75;8414921;28;20232;-68
2021/09/10 18:38:05;;;;;;;9.13;6.00;;;;;;;25.26;47.24;97906.19;8416818;28;20207;-69
2021/09/10 18:42:07;;;;;;;8.53;5.83;;;;;;;25.22;47.49;97911.97;8435344;28;20382;-69
2021/09/10 18:46:10;;;;;;;9.87;5.90;;;;;;;25.21;47.34;97916.44;8414753;28;20208;-72
2021/09/10 18:50:14;;;;;;;7.50;5.50;;;;;;;25.11;48.01;97918.38;8414901;28;20199;-69
2021/09/10 18:54:18;;;;;;;9.23;5.93;;;;;;;25.00;48.06;97914.22;8420037;28;20232;-69
2021/09/10 18:58:21;;;;;;;7.57;5.60;;;;;;;25.12;48.10;97917.41;8420579;28;20364;-69
2021/09/10 19:02:24;;;;;;;9.07;6.00;;;;;;;25.10;48.26;97914.91;8420509;28;20199;-69
2021/09/10 19:06:27;;;;;;;6.20;5.60;;;;;;;25.05;48.36;97919.84;8420305;28;20236;-69